sensor_id;sensor_type;location;lat;lon;timestamp;P1;durP1;ratioP1;P2;durP2;ratioP2
15608;SDS011;64278;45.642;13.756;2023-04-03T00:01:30;2.58;;;2.38;;
15608;SDS011;64278;45.642;13.756;2023-04-03T00:03:56;2.30;;;2.10;;
15608;SDS011;64278;45.642;13.756;2023-04-03T00:06:22;4.15;;;2.25;;
15608;SDS011;64278;45.642;13.756;2023-04-03T00:08:48;2.30;;;2.10;;
15608;SDS011;64278;45.642;13.756;2023-04-03T00:11:14;2.17;;;1.98;;
15608;SDS011;64278;45.642;13.756;2023-04-03T00:13:41;2.22;;;1.98;;
15608;SDS011;64278;45.642;13.756;2023-04-03T00:16:07;3.53;;;2.75;;
15608;SDS011;64278;45.642;13.756;2023-04-03T00:18:34;2.38;;;1.80;;
15608;SDS011;64278;45.642;13.756;2023-04-03T00:21:00;1.90;;;1.70;;
15608;SDS011;64278;45.642;13.756;2023-04-03T00:23:26;2.38;;;2.13;;
15608;SDS011;64278;45.642;13.756;2023-04-03T00:25:52;2.83;;;2.28;;
15608;SDS011;64278;45.642;13.756;2023-04-03T00:28:18;1.80;;;1.70;;
15608;SDS011;64278;45.642;13.756;2023-04-03T00:30:44;2.33;;;2.03;;
15608;SDS011;64278;45.642;13.756;2023-04-03T00:33:13;2.03;;;1.90;;
15608;SDS011;64278;45.642;13.756;2023-04-03T00:35:39;2.13;;;1.70;;
15608;SDS011;64278;45.642;13.756;2023-04-03T00:38:05;3.70;;;2.13;;
15608;SDS011;64278;45.642;13.756;2023-04-03T00:40:36;1.73;;;1.63;;
15608;SDS011;64278;45.642;13.756;2023-04-03T00:43:10;2.22;;;1.83;;
15608;SDS011;64278;45.642;13.756;2023-04-03T00:45:56;1.52;;;1.40;;
15608;SDS011;64278;45.642;13.756;2023-04-03T00:48:28;3.50;;;1.70;;
15608;SDS011;64278;45.642;13.756;2023-04-03T00:50:56;1.98;;;1.50;;
15608;SDS011;64278;45.642;13.756;2023-04-03T00:53:28;6.60;;;2.15;;
15608;SDS011;64278;45.642;13.756;2023-04-03T00:55:57;1.75;;;1.65;;
15608;SDS011;64278;45.642;13.756;2023-04-03T00:58:27;2.28;;;1.50;;
15608;SDS011;64278;45.642;13.756;2023-04-03T01:00:58;1.65;;;1.55;;
15608;SDS011;64278;45.642;13.756;2023-04-03T01:03:27;1.40;;;1.30;;
15608;SDS011;64278;45.642;13.756;2023-04-03T01:05:53;1.63;;;1.52;;
15608;SDS011;64278;45.642;13.756;2023-04-03T01:08:19;1.33;;;1.23;;
15608;SDS011;64278;45.642;13.756;2023-04-03T01:10:45;1.67;;;1.38;;
15608;SDS011;64278;45.642;13.756;2023-04-03T01:13:21;1.92;;;1.70;;
15608;SDS011;64278;45.642;13.756;2023-04-03T01:15:49;1.58;;;1.48;;
15608;SDS011;64278;45.642;13.756;2023-04-03T01:18:15;1.65;;;1.40;;
15608;SDS011;64278;45.642;13.756;2023-04-03T01:23:50;1.80;;;1.35;;
15608;SDS011;64278;45.642;13.756;2023-04-03T01:26:28;1.30;;;1.20;;
15608;SDS011;64278;45.642;13.756;2023-04-03T01:28:55;1.35;;;1.15;;
15608;SDS011;64278;45.642;13.756;2023-04-03T01:33:59;1.63;;;1.20;;
15608;SDS011;64278;45.642;13.756;2023-04-03T01:36:27;1.20;;;1.10;;
15608;SDS011;64278;45.642;13.756;2023-04-03T01:38:54;1.52;;;1.42;;
15608;SDS011;64278;45.642;13.756;2023-04-03T01:41:21;1.30;;;1.20;;
15608;SDS011;64278;45.642;13.756;2023-04-03T01:43:48;1.35;;;1.25;;
15608;SDS011;64278;45.642;13.756;2023-04-03T01:46:14;1.35;;;1.25;;
15608;SDS011;64278;45.642;13.756;2023-04-03T01:48:41;1.00;;;0.95;;
15608;SDS011;64278;45.642;13.756;2023-04-03T01:51:07;1.55;;;1.33;;
15608;SDS011;64278;45.642;13.756;2023-04-03T01:53:32;1.10;;;1.00;;
15608;SDS011;64278;45.642;13.756;2023-04-03T01:55:58;1.17;;;1.08;;
15608;SDS011;64278;45.642;13.756;2023-04-03T01:58:24;0.93;;;0.93;;
15608;SDS011;64278;45.642;13.756;2023-04-03T02:00:50;1.70;;;1.20;;
15608;SDS011;64278;45.642;13.756;2023-04-03T02:03:16;1.15;;;1.00;;
15608;SDS011;64278;45.642;13.756;2023-04-03T02:05:42;1.35;;;1.25;;
15608;SDS011;64278;45.642;13.756;2023-04-03T02:08:08;1.20;;;1.10;;
15608;SDS011;64278;45.642;13.756;2023-04-03T02:10:34;1.02;;;0.98;;
15608;SDS011;64278;45.642;13.756;2023-04-03T02:12:59;1.48;;;1.17;;
15608;SDS011;64278;45.642;13.756;2023-04-03T02:15:25;0.80;;;0.80;;
15608;SDS011;64278;45.642;13.756;2023-04-03T02:17:51;0.80;;;0.80;;
15608;SDS011;64278;45.642;13.756;2023-04-03T02:20:17;1.23;;;1.13;;
15608;SDS011;64278;45.642;13.756;2023-04-03T02:22:43;0.93;;;0.93;;
15608;SDS011;64278;45.642;13.756;2023-04-03T02:25:09;1.13;;;1.00;;
15608;SDS011;64278;45.642;13.756;2023-04-03T02:27:35;0.90;;;0.90;;
15608;SDS011;64278;45.642;13.756;2023-04-03T02:30:01;1.02;;;1.02;;
15608;SDS011;64278;45.642;13.756;2023-04-03T02:32:28;1.10;;;1.00;;
15608;SDS011;64278;45.642;13.756;2023-04-03T02:34:54;0.93;;;0.93;;
15608;SDS011;64278;45.642;13.756;2023-04-03T02:37:20;1.75;;;1.20;;
15608;SDS011;64278;45.642;13.756;2023-04-03T02:39:46;1.10;;;1.10;;
15608;SDS011;64278;45.642;13.756;2023-04-03T02:42:11;1.00;;;1.00;;
15608;SDS011;64278;45.642;13.756;2023-04-03T02:44:37;1.00;;;1.00;;
15608;SDS011;64278;45.642;13.756;2023-04-03T02:47:03;1.25;;;1.15;;
15608;SDS011;64278;45.642;13.756;2023-04-03T02:49:30;1.00;;;0.98;;
15608;SDS011;64278;45.642;13.756;2023-04-03T02:51:56;1.00;;;1.00;;
15608;SDS011;64278;45.642;13.756;2023-04-03T02:54:21;1.13;;;1.02;;
15608;SDS011;64278;45.642;13.756;2023-04-03T02:56:48;0.80;;;0.80;;
15608;SDS011;64278;45.642;13.756;2023-04-03T02:59:14;0.93;;;0.90;;
15608;SDS011;64278;45.642;13.756;2023-04-03T03:01:40;1.02;;;0.98;;
15608;SDS011;64278;45.642;13.756;2023-04-03T03:04:06;1.35;;;1.10;;
15608;SDS011;64278;45.642;13.756;2023-04-03T03:06:31;0.95;;;0.82;;
15608;SDS011;64278;45.642;13.756;2023-04-03T03:08:57;1.00;;;0.90;;
15608;SDS011;64278;45.642;13.756;2023-04-03T03:11:23;1.08;;;0.98;;
15608;SDS011;64278;45.642;13.756;2023-04-03T03:13:48;0.65;;;0.65;;
15608;SDS011;64278;45.642;13.756;2023-04-03T03:16:14;0.90;;;0.90;;
15608;SDS011;64278;45.642;13.756;2023-04-03T03:18:40;0.90;;;0.90;;
15608;SDS011;64278;45.642;13.756;2023-04-03T03:21:06;0.80;;;0.80;;
15608;SDS011;64278;45.642;13.756;2023-04-03T03:23:32;1.00;;;0.90;;
15608;SDS011;64278;45.642;13.756;2023-04-03T03:25:58;1.30;;;1.20;;
15608;SDS011;64278;45.642;13.756;2023-04-03T03:28:26;0.80;;;0.80;;
15608;SDS011;64278;45.642;13.756;2023-04-03T03:30:52;0.80;;;0.80;;
15608;SDS011;64278;45.642;13.756;2023-04-03T03:33:18;0.80;;;0.80;;
15608;SDS011;64278;45.642;13.756;2023-04-03T03:35:44;0.77;;;0.77;;
15608;SDS011;64278;45.642;13.756;2023-04-03T03:38:10;0.63;;;0.63;;
15608;SDS011;64278;45.642;13.756;2023-04-03T03:40:36;0.80;;;0.80;;
15608;SDS011;64278;45.642;13.756;2023-04-03T03:43:01;1.20;;;1.00;;
15608;SDS011;64278;45.642;13.756;2023-04-03T03:45:27;1.10;;;1.10;;
15608;SDS011;64278;45.642;13.756;2023-04-03T03:47:53;0.90;;;0.90;;
15608;SDS011;64278;45.642;13.756;2023-04-03T03:50:19;0.80;;;0.80;;
15608;SDS011;64278;45.642;13.756;2023-04-03T03:52:45;1.15;;;1.05;;
15608;SDS011;64278;45.642;13.756;2023-04-03T03:55:11;0.80;;;0.80;;
15608;SDS011;64278;45.642;13.756;2023-04-03T03:57:36;1.20;;;1.10;;
15608;SDS011;64278;45.642;13.756;2023-04-03T04:00:02;1.15;;;1.10;;
15608;SDS011;64278;45.642;13.756;2023-04-03T04:02:29;1.08;;;1.08;;
15608;SDS011;64278;45.642;13.756;2023-04-03T04:04:54;1.13;;;1.08;;
15608;SDS011;64278;45.642;13.756;2023-04-03T04:07:20;0.82;;;0.82;;
15608;SDS011;64278;45.642;13.756;2023-04-03T04:09:46;1.17;;;0.90;;
15608;SDS011;64278;45.642;13.756;2023-04-03T04:12:12;1.13;;;1.13;;
15608;SDS011;64278;45.642;13.756;2023-04-03T04:14:38;2.13;;;1.05;;
15608;SDS011;64278;45.642;13.756;2023-04-03T04:17:03;0.90;;;0.90;;
15608;SDS011;64278;45.642;13.756;2023-04-03T04:19:29;0.80;;;0.80;;
15608;SDS011;64278;45.642;13.756;2023-04-03T04:21:55;1.15;;;0.85;;
15608;SDS011;64278;45.642;13.756;2023-04-03T04:24:20;0.90;;;0.90;;
15608;SDS011;64278;45.642;13.756;2023-04-03T04:26:47;1.00;;;1.00;;
15608;SDS011;64278;45.642;13.756;2023-04-03T04:29:13;0.75;;;0.75;;
15608;SDS011;64278;45.642;13.756;2023-04-03T04:31:39;0.90;;;0.90;;
15608;SDS011;64278;45.642;13.756;2023-04-03T04:34:05;1.00;;;1.00;;
15608;SDS011;64278;45.642;13.756;2023-04-03T04:36:31;0.70;;;0.70;;
15608;SDS011;64278;45.642;13.756;2023-04-03T04:38:56;1.10;;;1.10;;
15608;SDS011;64278;45.642;13.756;2023-04-03T04:41:23;0.70;;;0.70;;
15608;SDS011;64278;45.642;13.756;2023-04-03T04:43:50;1.13;;;1.02;;
15608;SDS011;64278;45.642;13.756;2023-04-03T04:46:15;0.90;;;0.73;;
15608;SDS011;64278;45.642;13.756;2023-04-03T04:48:42;0.98;;;0.98;;
15608;SDS011;64278;45.642;13.756;2023-04-03T04:51:08;1.08;;;1.00;;
15608;SDS011;64278;45.642;13.756;2023-04-03T04:53:33;1.10;;;1.10;;
15608;SDS011;64278;45.642;13.756;2023-04-03T04:55:59;0.75;;;0.75;;
15608;SDS011;64278;45.642;13.756;2023-04-03T04:58:25;0.95;;;0.95;;
15608;SDS011;64278;45.642;13.756;2023-04-03T05:01:01;1.00;;;1.00;;
15608;SDS011;64278;45.642;13.756;2023-04-03T05:03:31;0.90;;;0.90;;
15608;SDS011;64278;45.642;13.756;2023-04-03T05:05:57;1.02;;;1.02;;
15608;SDS011;64278;45.642;13.756;2023-04-03T05:08:22;0.95;;;0.95;;
15608;SDS011;64278;45.642;13.756;2023-04-03T05:10:48;1.00;;;1.00;;
15608;SDS011;64278;45.642;13.756;2023-04-03T05:13:14;1.30;;;1.02;;
15608;SDS011;64278;45.642;13.756;2023-04-03T05:15:40;0.90;;;0.90;;
15608;SDS011;64278;45.642;13.756;2023-04-03T05:18:06;1.00;;;0.90;;
15608;SDS011;64278;45.642;13.756;2023-04-03T05:20:32;1.15;;;1.13;;
15608;SDS011;64278;45.642;13.756;2023-04-03T05:22:58;0.85;;;0.85;;
15608;SDS011;64278;45.642;13.756;2023-04-03T05:25:24;1.17;;;1.08;;
15608;SDS011;64278;45.642;13.756;2023-04-03T05:27:50;0.93;;;0.93;;
15608;SDS011;64278;45.642;13.756;2023-04-03T05:30:16;1.27;;;1.10;;
15608;SDS011;64278;45.642;13.756;2023-04-03T05:32:42;1.05;;;0.90;;
15608;SDS011;64278;45.642;13.756;2023-04-03T05:35:08;1.27;;;0.90;;
15608;SDS011;64278;45.642;13.756;2023-04-03T05:37:34;0.90;;;0.90;;
15608;SDS011;64278;45.642;13.756;2023-04-03T05:40:00;1.13;;;1.02;;
15608;SDS011;64278;45.642;13.756;2023-04-03T05:42:26;0.75;;;0.75;;
15608;SDS011;64278;45.642;13.756;2023-04-03T05:44:52;0.82;;;0.82;;
15608;SDS011;64278;45.642;13.756;2023-04-03T05:47:18;0.93;;;0.93;;
15608;SDS011;64278;45.642;13.756;2023-04-03T05:49:44;0.90;;;0.90;;
15608;SDS011;64278;45.642;13.756;2023-04-03T05:52:44;1.67;;;1.08;;
15608;SDS011;64278;45.642;13.756;2023-04-03T05:55:05;1.63;;;1.02;;
15608;SDS011;64278;45.642;13.756;2023-04-03T05:57:31;1.10;;;1.10;;
15608;SDS011;64278;45.642;13.756;2023-04-03T05:59:56;1.20;;;1.10;;
15608;SDS011;64278;45.642;13.756;2023-04-03T06:02:23;1.25;;;1.20;;
15608;SDS011;64278;45.642;13.756;2023-04-03T06:04:50;1.20;;;1.10;;
15608;SDS011;64278;45.642;13.756;2023-04-03T06:07:21;1.15;;;1.10;;
15608;SDS011;64278;45.642;13.756;2023-04-03T06:09:49;1.05;;;1.00;;
15608;SDS011;64278;45.642;13.756;2023-04-03T06:12:16;1.40;;;1.30;;
15608;SDS011;64278;45.642;13.756;2023-04-03T06:14:42;0.90;;;0.90;;
15608;SDS011;64278;45.642;13.756;2023-04-03T06:17:08;0.90;;;0.90;;
15608;SDS011;64278;45.642;13.756;2023-04-03T06:19:34;1.20;;;1.10;;
15608;SDS011;64278;45.642;13.756;2023-04-03T06:22:00;1.15;;;0.90;;
15608;SDS011;64278;45.642;13.756;2023-04-03T06:24:28;1.20;;;1.20;;
15608;SDS011;64278;45.642;13.756;2023-04-03T06:26:53;1.08;;;1.08;;
15608;SDS011;64278;45.642;13.756;2023-04-03T06:29:19;1.00;;;1.00;;
15608;SDS011;64278;45.642;13.756;2023-04-03T06:31:46;1.15;;;1.10;;
15608;SDS011;64278;45.642;13.756;2023-04-03T06:34:12;1.45;;;1.35;;
15608;SDS011;64278;45.642;13.756;2023-04-03T06:36:38;1.27;;;1.20;;
15608;SDS011;64278;45.642;13.756;2023-04-03T06:39:04;1.65;;;1.20;;
15608;SDS011;64278;45.642;13.756;2023-04-03T06:41:32;1.40;;;1.30;;
15608;SDS011;64278;45.642;13.756;2023-04-03T06:43:58;1.20;;;1.17;;
15608;SDS011;64278;45.642;13.756;2023-04-03T06:46:24;2.45;;;1.30;;
15608;SDS011;64278;45.642;13.756;2023-04-03T06:48:51;2.55;;;1.50;;
15608;SDS011;64278;45.642;13.756;2023-04-03T06:51:19;1.50;;;1.40;;
15608;SDS011;64278;45.642;13.756;2023-04-03T06:53:47;2.15;;;1.55;;
15608;SDS011;64278;45.642;13.756;2023-04-03T06:56:14;2.65;;;1.50;;
15608;SDS011;64278;45.642;13.756;2023-04-03T06:58:41;2.90;;;1.63;;
15608;SDS011;64278;45.642;13.756;2023-04-03T07:01:08;2.85;;;1.50;;
15608;SDS011;64278;45.642;13.756;2023-04-03T07:03:36;1.70;;;1.60;;
15608;SDS011;64278;45.642;13.756;2023-04-03T07:06:02;1.70;;;1.50;;
15608;SDS011;64278;45.642;13.756;2023-04-03T07:08:29;3.33;;;1.70;;
15608;SDS011;64278;45.642;13.756;2023-04-03T07:10:55;2.97;;;1.77;;
15608;SDS011;64278;45.642;13.756;2023-04-03T07:13:21;2.00;;;1.80;;
15608;SDS011;64278;45.642;13.756;2023-04-03T07:15:46;2.67;;;1.92;;
15608;SDS011;64278;45.642;13.756;2023-04-03T07:18:13;3.58;;;1.60;;
15608;SDS011;64278;45.642;13.756;2023-04-03T07:20:38;2.65;;;1.90;;
15608;SDS011;64278;45.642;13.756;2023-04-03T07:23:05;2.17;;;1.70;;
15608;SDS011;64278;45.642;13.756;2023-04-03T07:25:31;2.58;;;1.70;;
15608;SDS011;64278;45.642;13.756;2023-04-03T07:27:57;1.63;;;1.50;;
15608;SDS011;64278;45.642;13.756;2023-04-03T07:30:23;2.00;;;1.70;;
15608;SDS011;64278;45.642;13.756;2023-04-03T07:32:48;1.90;;;1.70;;
15608;SDS011;64278;45.642;13.756;2023-04-03T07:35:14;1.85;;;1.67;;
15608;SDS011;64278;45.642;13.756;2023-04-03T07:37:41;1.52;;;1.30;;
15608;SDS011;64278;45.642;13.756;2023-04-03T07:40:07;2.70;;;1.83;;
15608;SDS011;64278;45.642;13.756;2023-04-03T07:42:33;2.08;;;1.60;;
15608;SDS011;64278;45.642;13.756;2023-04-03T07:45:00;1.88;;;1.42;;
15608;SDS011;64278;45.642;13.756;2023-04-03T07:47:26;1.90;;;1.60;;
15608;SDS011;64278;45.642;13.756;2023-04-03T07:49:52;2.30;;;1.77;;
15608;SDS011;64278;45.642;13.756;2023-04-03T07:52:18;2.10;;;1.90;;
15608;SDS011;64278;45.642;13.756;2023-04-03T07:54:43;3.08;;;1.77;;
15608;SDS011;64278;45.642;13.756;2023-04-03T07:57:09;3.05;;;2.13;;
15608;SDS011;64278;45.642;13.756;2023-04-03T07:59:35;1.65;;;1.55;;
15608;SDS011;64278;45.642;13.756;2023-04-03T08:02:01;1.75;;;1.65;;
15608;SDS011;64278;45.642;13.756;2023-04-03T08:04:29;1.95;;;1.77;;
15608;SDS011;64278;45.642;13.756;2023-04-03T08:06:55;2.40;;;1.55;;
15608;SDS011;64278;45.642;13.756;2023-04-03T08:09:21;2.65;;;1.77;;
15608;SDS011;64278;45.642;13.756;2023-04-03T08:11:47;4.32;;;2.17;;
15608;SDS011;64278;45.642;13.756;2023-04-03T08:14:13;2.25;;;2.05;;
15608;SDS011;64278;45.642;13.756;2023-04-03T08:16:44;3.95;;;2.20;;
15608;SDS011;64278;45.642;13.756;2023-04-03T08:19:11;2.13;;;1.92;;
15608;SDS011;64278;45.642;13.756;2023-04-03T08:21:39;3.15;;;1.67;;
15608;SDS011;64278;45.642;13.756;2023-04-03T08:24:06;1.55;;;1.45;;
15608;SDS011;64278;45.642;13.756;2023-04-03T08:26:32;1.60;;;1.50;;
15608;SDS011;64278;45.642;13.756;2023-04-03T08:28:58;2.15;;;1.50;;
15608;SDS011;64278;45.642;13.756;2023-04-03T08:31:23;1.60;;;1.50;;
15608;SDS011;64278;45.642;13.756;2023-04-03T08:33:49;2.35;;;1.33;;
15608;SDS011;64278;45.642;13.756;2023-04-03T08:36:19;1.38;;;1.27;;
15608;SDS011;64278;45.642;13.756;2023-04-03T08:38:47;3.13;;;1.40;;
15608;SDS011;64278;45.642;13.756;2023-04-03T08:44:13;1.52;;;1.35;;
15608;SDS011;64278;45.642;13.756;2023-04-03T08:47:04;1.20;;;1.10;;
15608;SDS011;64278;45.642;13.756;2023-04-03T08:49:59;1.33;;;1.23;;
15608;SDS011;64278;45.642;13.756;2023-04-03T08:52:36;1.42;;;1.10;;
15608;SDS011;64278;45.642;13.756;2023-04-03T08:55:07;1.48;;;1.38;;
15608;SDS011;64278;45.642;13.756;2023-04-03T08:57:44;1.90;;;1.23;;
15608;SDS011;64278;45.642;13.756;2023-04-03T09:02:52;1.20;;;1.10;;
15608;SDS011;64278;45.642;13.756;2023-04-03T09:05:20;2.13;;;1.17;;
15608;SDS011;64278;45.642;13.756;2023-04-03T09:10:28;2.53;;;1.70;;
15608;SDS011;64278;45.642;13.756;2023-04-03T09:13:10;3.60;;;1.27;;
15608;SDS011;64278;45.642;13.756;2023-04-03T09:15:47;2.05;;;0.98;;
15608;SDS011;64278;45.642;13.756;2023-04-03T09:18:27;1.33;;;1.23;;
15608;SDS011;64278;45.642;13.756;2023-04-03T09:23:58;2.58;;;1.15;;
15608;SDS011;64278;45.642;13.756;2023-04-03T09:26:27;1.00;;;1.00;;
15608;SDS011;64278;45.642;13.756;2023-04-03T09:28:56;1.77;;;1.33;;
15608;SDS011;64278;45.642;13.756;2023-04-03T09:31:46;1.23;;;1.13;;
15608;SDS011;64278;45.642;13.756;2023-04-03T09:34:22;1.23;;;1.00;;
15608;SDS011;64278;45.642;13.756;2023-04-03T09:36:51;1.50;;;1.40;;
15608;SDS011;64278;45.642;13.756;2023-04-03T09:39:20;1.27;;;1.17;;
15608;SDS011;64278;45.642;13.756;2023-04-03T09:42:13;1.20;;;1.10;;
15608;SDS011;64278;45.642;13.756;2023-04-03T09:45:18;1.35;;;1.20;;
15608;SDS011;64278;45.642;13.756;2023-04-03T09:47:47;2.00;;;1.00;;
15608;SDS011;64278;45.642;13.756;2023-04-03T09:52:44;2.67;;;1.33;;
15608;SDS011;64278;45.642;13.756;2023-04-03T09:57:57;1.88;;;1.33;;
15608;SDS011;64278;45.642;13.756;2023-04-03T10:00:30;1.50;;;1.40;;
15608;SDS011;64278;45.642;13.756;2023-04-03T10:03:01;2.97;;;1.70;;
15608;SDS011;64278;45.642;13.756;2023-04-03T10:10:39;4.47;;;1.70;;
15608;SDS011;64278;45.642;13.756;2023-04-03T10:13:12;1.95;;;1.58;;
15608;SDS011;64278;45.642;13.756;2023-04-03T10:15:45;2.90;;;1.40;;
15608;SDS011;64278;45.642;13.756;2023-04-03T10:18:17;1.83;;;1.58;;
15608;SDS011;64278;45.642;13.756;2023-04-03T10:20:49;3.25;;;1.80;;
15608;SDS011;64278;45.642;13.756;2023-04-03T10:29:02;1.80;;;1.45;;
15608;SDS011;64278;45.642;13.756;2023-04-03T10:34:57;6.80;;;1.70;;
15608;SDS011;64278;45.642;13.756;2023-04-03T10:37:41;4.93;;;1.35;;
15608;SDS011;64278;45.642;13.756;2023-04-03T10:41:20;1.67;;;1.30;;
15608;SDS011;64278;45.642;13.756;2023-04-03T10:43:32;1.70;;;1.27;;
15608;SDS011;64278;45.642;13.756;2023-04-03T10:46:04;3.70;;;1.35;;
15608;SDS011;64278;45.642;13.756;2023-04-03T10:51:47;1.15;;;1.05;;
15608;SDS011;64278;45.642;13.756;2023-04-03T10:54:24;1.42;;;1.10;;
15608;SDS011;64278;45.642;13.756;2023-04-03T10:57:09;1.33;;;1.23;;
15608;SDS011;64278;45.642;13.756;2023-04-03T10:59:53;1.73;;;1.25;;
15608;SDS011;64278;45.642;13.756;2023-04-03T11:02:30;1.40;;;1.00;;
15608;SDS011;64278;45.642;13.756;2023-04-03T11:07:40;1.25;;;1.15;;
15608;SDS011;64278;45.642;13.756;2023-04-03T11:12:47;2.03;;;1.38;;
15608;SDS011;64278;45.642;13.756;2023-04-03T11:15:17;1.63;;;1.20;;
15608;SDS011;64278;45.642;13.756;2023-04-03T11:18:01;2.03;;;1.30;;
15608;SDS011;64278;45.642;13.756;2023-04-03T11:20:31;1.38;;;1.20;;
15608;SDS011;64278;45.642;13.756;2023-04-03T11:26:07;4.30;;;1.40;;
15608;SDS011;64278;45.642;13.756;2023-04-03T11:28:38;1.67;;;1.15;;
15608;SDS011;64278;45.642;13.756;2023-04-03T11:36:45;1.05;;;0.93;;
15608;SDS011;64278;45.642;13.756;2023-04-03T11:39:30;1.77;;;1.08;;
15608;SDS011;64278;45.642;13.756;2023-04-03T11:44:50;1.52;;;1.00;;
15608;SDS011;64278;45.642;13.756;2023-04-03T11:47:43;1.38;;;1.27;;
15608;SDS011;64278;45.642;13.756;2023-04-03T11:53:42;2.00;;;1.20;;
15608;SDS011;64278;45.642;13.756;2023-04-03T11:55:55;2.25;;;1.10;;
15608;SDS011;64278;45.642;13.756;2023-04-03T12:16:20;1.05;;;1.00;;
15608;SDS011;64278;45.642;13.756;2023-04-03T12:29:01;0.95;;;0.95;;
15608;SDS011;64278;45.642;13.756;2023-04-03T12:40:15;3.30;;;1.52;;
15608;SDS011;64278;45.642;13.756;2023-04-03T12:48:17;1.88;;;1.23;;
15608;SDS011;64278;45.642;13.756;2023-04-03T12:50:49;2.92;;;1.20;;
15608;SDS011;64278;45.642;13.756;2023-04-03T12:55:47;1.27;;;1.15;;
15608;SDS011;64278;45.642;13.756;2023-04-03T13:03:50;1.50;;;0.93;;
15608;SDS011;64278;45.642;13.756;2023-04-03T13:08:51;1.25;;;0.82;;
15608;SDS011;64278;45.642;13.756;2023-04-03T13:11:19;2.45;;;1.17;;
15608;SDS011;64278;45.642;13.756;2023-04-03T13:13:59;0.93;;;0.80;;
15608;SDS011;64278;45.642;13.756;2023-04-03T13:16:27;1.63;;;0.85;;
15608;SDS011;64278;45.642;13.756;2023-04-03T13:18:53;1.17;;;0.80;;
15608;SDS011;64278;45.642;13.756;2023-04-03T13:21:21;0.90;;;0.80;;
15608;SDS011;64278;45.642;13.756;2023-04-03T13:23:53;1.27;;;0.93;;
15608;SDS011;64278;45.642;13.756;2023-04-03T13:26:22;2.35;;;0.98;;
15608;SDS011;64278;45.642;13.756;2023-04-03T13:28:51;1.85;;;0.73;;
15608;SDS011;64278;45.642;13.756;2023-04-03T13:31:25;2.15;;;1.20;;
15608;SDS011;64278;45.642;13.756;2023-04-03T13:33:55;1.00;;;0.90;;
15608;SDS011;64278;45.642;13.756;2023-04-03T13:36:44;1.77;;;0.73;;
15608;SDS011;64278;45.642;13.756;2023-04-03T13:41:40;1.35;;;0.88;;
15608;SDS011;64278;45.642;13.756;2023-04-03T13:44:23;1.80;;;0.80;;
15608;SDS011;64278;45.642;13.756;2023-04-03T13:46:54;1.95;;;1.10;;
15608;SDS011;64278;45.642;13.756;2023-04-03T13:49:26;1.08;;;0.90;;
15608;SDS011;64278;45.642;13.756;2023-04-03T13:51:53;1.55;;;1.17;;
15608;SDS011;64278;45.642;13.756;2023-04-03T13:54:21;2.13;;;1.10;;
15608;SDS011;64278;45.642;13.756;2023-04-03T13:56:56;0.85;;;0.80;;
15608;SDS011;64278;45.642;13.756;2023-04-03T13:59:24;0.73;;;0.73;;
15608;SDS011;64278;45.642;13.756;2023-04-03T14:04:28;1.85;;;1.08;;
15608;SDS011;64278;45.642;13.756;2023-04-03T14:06:56;1.30;;;1.00;;
15608;SDS011;64278;45.642;13.756;2023-04-03T14:09:22;1.77;;;1.00;;
15608;SDS011;64278;45.642;13.756;2023-04-03T14:11:50;2.38;;;1.52;;
15608;SDS011;64278;45.642;13.756;2023-04-03T14:14:27;1.63;;;1.52;;
15608;SDS011;64278;45.642;13.756;2023-04-03T14:16:57;2.70;;;2.50;;
15608;SDS011;64278;45.642;13.756;2023-04-03T14:21:55;3.38;;;3.00;;
15608;SDS011;64278;45.642;13.756;2023-04-03T14:24:22;3.75;;;3.45;;
15608;SDS011;64278;45.642;13.756;2023-04-03T14:26:49;4.88;;;3.90;;
15608;SDS011;64278;45.642;13.756;2023-04-03T14:29:20;4.18;;;3.78;;
15608;SDS011;64278;45.642;13.756;2023-04-03T14:31:47;4.57;;;3.95;;
15608;SDS011;64278;45.642;13.756;2023-04-03T14:34:14;5.22;;;4.75;;
15608;SDS011;64278;45.642;13.756;2023-04-03T14:36:40;4.90;;;4.40;;
15608;SDS011;64278;45.642;13.756;2023-04-03T14:39:08;5.18;;;4.07;;
15608;SDS011;64278;45.642;13.756;2023-04-03T14:41:41;5.00;;;4.50;;
15608;SDS011;64278;45.642;13.756;2023-04-03T14:44:08;5.00;;;4.50;;
15608;SDS011;64278;45.642;13.756;2023-04-03T14:46:37;4.78;;;4.38;;
15608;SDS011;64278;45.642;13.756;2023-04-03T14:49:21;5.35;;;4.85;;
15608;SDS011;64278;45.642;13.756;2023-04-03T14:51:49;4.90;;;4.55;;
15608;SDS011;64278;45.642;13.756;2023-04-03T14:54:17;5.03;;;4.53;;
15608;SDS011;64278;45.642;13.756;2023-04-03T14:56:46;5.25;;;4.75;;
15608;SDS011;64278;45.642;13.756;2023-04-03T14:59:13;4.93;;;4.53;;
15608;SDS011;64278;45.642;13.756;2023-04-03T15:01:40;5.22;;;4.68;;
15608;SDS011;64278;45.642;13.756;2023-04-03T15:04:10;4.50;;;4.10;;
15608;SDS011;64278;45.642;13.756;2023-04-03T15:06:40;4.78;;;4.30;;
15608;SDS011;64278;45.642;13.756;2023-04-03T15:09:11;4.47;;;4.07;;
15608;SDS011;64278;45.642;13.756;2023-04-03T15:11:45;4.95;;;4.50;;
15608;SDS011;64278;45.642;13.756;2023-04-03T15:14:11;4.47;;;4.07;;
15608;SDS011;64278;45.642;13.756;2023-04-03T15:16:37;4.28;;;3.97;;
15608;SDS011;64278;45.642;13.756;2023-04-03T15:19:02;4.40;;;4.05;;
15608;SDS011;64278;45.642;13.756;2023-04-03T15:21:28;3.45;;;3.15;;
15608;SDS011;64278;45.642;13.756;2023-04-03T15:23:54;4.35;;;3.72;;
15608;SDS011;64278;45.642;13.756;2023-04-03T15:26:19;4.10;;;3.78;;
15608;SDS011;64278;45.642;13.756;2023-04-03T15:28:46;4.20;;;3.63;;
15608;SDS011;64278;45.642;13.756;2023-04-03T15:31:11;4.38;;;3.97;;
15608;SDS011;64278;45.642;13.756;2023-04-03T15:33:37;3.92;;;3.53;;
15608;SDS011;64278;45.642;13.756;2023-04-03T15:36:04;3.78;;;3.47;;
15608;SDS011;64278;45.642;13.756;2023-04-03T15:38:30;4.07;;;3.78;;
15608;SDS011;64278;45.642;13.756;2023-04-03T15:40:56;4.85;;;3.60;;
15608;SDS011;64278;45.642;13.756;2023-04-03T15:43:22;3.17;;;2.97;;
15608;SDS011;64278;45.642;13.756;2023-04-03T15:45:48;4.40;;;4.00;;
15608;SDS011;64278;45.642;13.756;2023-04-03T15:48:15;3.80;;;3.50;;
15608;SDS011;64278;45.642;13.756;2023-04-03T15:50:41;4.50;;;4.10;;
15608;SDS011;64278;45.642;13.756;2023-04-03T15:53:07;4.15;;;3.75;;
15608;SDS011;64278;45.642;13.756;2023-04-03T15:55:35;3.53;;;3.22;;
15608;SDS011;64278;45.642;13.756;2023-04-03T15:58:01;3.22;;;3.03;;
15608;SDS011;64278;45.642;13.756;2023-04-03T16:00:28;3.67;;;3.38;;
15608;SDS011;64278;45.642;13.756;2023-04-03T16:02:59;4.68;;;3.55;;
15608;SDS011;64278;45.642;13.756;2023-04-03T16:05:29;3.63;;;3.28;;
15608;SDS011;64278;45.642;13.756;2023-04-03T16:07:55;3.85;;;3.55;;
15608;SDS011;64278;45.642;13.756;2023-04-03T16:10:24;3.08;;;2.88;;
15608;SDS011;64278;45.642;13.756;2023-04-03T16:12:50;3.95;;;3.65;;
15608;SDS011;64278;45.642;13.756;2023-04-03T16:15:15;3.85;;;3.00;;
15608;SDS011;64278;45.642;13.756;2023-04-03T16:17:41;3.47;;;3.17;;
15608;SDS011;64278;45.642;13.756;2023-04-03T16:20:08;3.67;;;3.35;;
15608;SDS011;64278;45.642;13.756;2023-04-03T16:22:35;3.30;;;3.00;;
15608;SDS011;64278;45.642;13.756;2023-04-03T16:25:01;3.83;;;3.53;;
15608;SDS011;64278;45.642;13.756;2023-04-03T16:27:27;3.40;;;3.10;;
15608;SDS011;64278;45.642;13.756;2023-04-03T16:29:55;3.33;;;3.03;;
15608;SDS011;64278;45.642;13.756;2023-04-03T16:32:25;3.08;;;2.88;;
15608;SDS011;64278;45.642;13.756;2023-04-03T16:34:53;3.33;;;3.03;;
15608;SDS011;64278;45.642;13.756;2023-04-03T16:37:20;3.60;;;3.13;;
15608;SDS011;64278;45.642;13.756;2023-04-03T16:39:45;3.45;;;2.90;;
15608;SDS011;64278;45.642;13.756;2023-04-03T16:42:11;3.40;;;2.97;;